Hlavní strana
METAR-TAF:

METAR-TAF

Letiště :

Mezinárodní letiště Si-an Sien-jang

Si-an, Čína

zeměpisná šířka: 34-26N, zeměpisná délka: 108-45E, výška: 479 m

Aktuální stav počasí

Zpráva byla vytvořena před 31 minutami, v 13:00 UTC
Západní vítr 4 kt
Teplota 25°C
Vlhkost vzduchu 74%
Tlak 1010 hPa
Viditelnost 10 km a více
Žádná oblačnost pod 1500 m, nevyskytují se cumulonimby.

METAR: ZLXY 171300Z 26002MPS CAVOK 25/20 Q1010 NOSIG

Čas: 21:31 (13:31 UTC)

Předpověď počasí

Zpráva byla vytvořena před 4 hodinami a 25 minutami, v 09:06 UTC
Předpověď platná od 17 v 12 UTC do 18 v 12 UTC
Západojihozápadní vítr 6 kt
Viditelnost: 6000 m
Skoro jasno ve výšce 4000 ft

TAF: ZLXY 170906Z 1712/1812 24003MPS 6000 FEW040 TX36/1808Z TN23/1721Z

Stav a předpovědi počasí z více než 4 000 letišť (zprávy METAR a TAF).

Červené a žluté tečky na mapě představují dostupné meteorologické stanice.

Když kurzor umístíte na tečku, zobrazí se název stanice.

Pak kliknutím zobrazíte stav a předpověď počasí.

Chcete-li změnit mapu, kliknutím na zelené tlačítko se znaménkem +mapu přiblížíte, kliknutím na zelené tlačítko se znaménkem – mapu oddálíte a kliknutím na zelené šipky přejdete na sousední mapy.


METAR-TAF: